Terminal Aerodrome Forecast
Issued by NWS Sioux Falls, SD

Home | Current Version | Previous Version | Text Only | Print | Product List | Glossary On
Versions: 1 2 3 4 5 6 7 8 9 10 11 12
984
FTUS43 KFSD 231722
TAFFSD
TAF
KFSD 231722Z 2318/2418 20008KT P6SM SCT250
     FM241400 28007KT P6SM SCT130 BKN200
     FM241600 30015G25KT P6SM BKN110=

USA.gov is the U.S. government's official web portal to all federal, state and local government web resources and services.